Decoded Metar for EPGD (GDANSK in POLAND) (IATA:GDN) | Meteo·Mobile Aviation Weather
aviador You're here:

EPGD Decoded Metar

GDANSK in POLAND
Report Time2019-01-18 11:00:00
UTC Time2019-01-18 11:31:12
Flight Rules vfr VFR
Wind280° at 16 kt
W.Decomp.*RWY 29: 15.5 kt HW 4.1 kt LCW
W.Rank280° ranks 2
Current wind is above 280° avg. (9.3)
Visibility9999 m
Phenomena:N/A
Clouds:Broken 031 Hf
Expected CloudBase > 1,200 ft AGL from Temp-Dew spread
Ceiling3,100 ft
Temp-1°C (ISA -15)
Dew Point-4°C (80% RH)
AAT-9.3°C
QNH1008 hPa
Density Alt-1,158 ft
Elevation453 ft
Report Wrong Elevation
Raw Report
EPGD 181100Z 28016KT 9999 BKN031 M01/M04 Q1008 R11/650195=

Extra information for EPGD:More info

Metar Taf Metar & Taf Last 4 Metars F.Rules Stats Wind Profile Meteogram Temp Stats Airport Information Weather charts Add Link Nearby VenuesMetar ALERT Operation Metar Decoded Social comments